Time;durP1;ratioP1;P1;durP2;ratioP2;P2;SDS_P1;SDS_P2;PMS_P1;PMS_P2;Temp;Humidity;BMP_temperature;BMP_pressure;BME280_temperature;BME280_humidity;BME280_pressure;Samples;Min_cycle;Max_cycle;Signal;HPM_P1;HPM_P2
2022/03/23 00:01:10;;;;;;;;;;;;;;;8.05;31.23;101552.94;6192238;23;19919;-84
2022/03/23 00:03:37;;;;;;;;;;;;;;;8.04;31.19;101553.34;6243664;23;19924;-85
2022/03/23 00:06:02;;;;;;;;;;;;;;;8.02;31.30;101550.13;6244230;23;20289;-84
2022/03/23 00:08:28;;;;;;;;;;;;;;;8.00;31.25;101547.78;6217154;23;19916;-84
2022/03/23 00:10:53;;;;;;;;;;;;;;;8.05;31.23;101544.63;6217551;23;20338;-84
2022/03/23 00:13:19;;;;;;;;;;;;;;;8.08;31.05;101543.09;6244152;23;20404;-84
2022/03/23 00:15:45;;;;;;;;;;;;;;;8.09;31.19;101539.16;6244068;23;19915;-84
2022/03/23 00:18:11;;;;;;;;;;;;;;;8.05;31.21;101544.63;6243999;23;19919;-84
2022/03/23 00:20:36;;;;;;;;;;;;;;;8.00;31.47;101539.50;6244058;23;19969;-84
2022/03/23 00:23:02;;;;;;;;;;;;;;;8.05;31.03;101544.63;6217160;23;19915;-84
2022/03/23 00:25:27;;;;;;;;;;;;;;;8.06;31.06;101535.19;6244239;23;19969;-84
2022/03/23 00:27:52;;;;;;;;;;;;;;;8.13;30.80;101540.75;6244269;23;19916;-84
2022/03/23 00:30:18;;;;;;;;;;;;;;;8.15;30.54;101532.88;6216931;23;19912;-84
2022/03/23 00:32:43;;;;;;;;;;;;;;;8.22;30.43;101538.44;6243917;23;19926;-84
2022/03/23 00:35:09;;;;;;;;;;;;;;;8.25;30.67;101536.91;6217572;23;19982;-84
2022/03/23 00:37:35;;;;;;;;;;;;;;;8.21;30.77;101530.56;6243437;23;19919;-84
2022/03/23 00:40:00;;;;;;;;;;;;;;;8.14;31.14;101525.75;6244379;23;19919;-84
2022/03/23 00:42:26;;;;;;;;;;;;;;;8.04;31.25;101537.53;6243485;23;19916;-85
2022/03/23 00:44:54;;;;;;;;;;;;;;;7.94;31.56;101521.66;6217378;23;19915;-84
2022/03/23 00:47:22;;;;;;;;;;;;;;;7.90;31.28;101516.13;6243791;23;19942;-84
2022/03/23 00:49:47;;;;;;;;;;;;;;;7.97;31.17;101507.88;6244139;23;20334;-84
2022/03/23 00:52:12;;;;;;;;;;;;;;;8.05;31.01;101513.47;6243600;23;19919;-84
2022/03/23 00:54:38;;;;;;;;;;;;;;;8.09;30.91;101515.06;6244074;23;19922;-84
2022/03/23 00:57:04;;;;;;;;;;;;;;;7.95;31.99;101510.25;6216569;23;20296;-84
2022/03/23 00:59:29;;;;;;;;;;;;;;;7.66;32.43;101505.66;6243537;23;20376;-84
2022/03/23 01:01:54;;;;;;;;;;;;;;;7.41;32.90;101505.44;6216314;23;20329;-84
2022/03/23 01:04:20;;;;;;;;;;;;;;;7.20;33.27;101507.97;6243154;23;19915;-84
2022/03/23 01:06:46;;;;;;;;;;;;;;;7.05;33.47;101506.25;6216267;23;20241;-84
2022/03/23 01:09:11;;;;;;;;;;;;;;;6.99;33.67;101505.81;6243509;23;19915;-85
2022/03/23 01:11:37;;;;;;;;;;;;;;;6.92;33.59;101510.41;6191675;23;19920;-84
2022/03/23 01:14:04;;;;;;;;;;;;;;;6.84;33.97;101505.97;6243525;23;19998;-84
2022/03/23 01:16:30;;;;;;;;;;;;;;;6.75;34.21;101511.03;6243901;23;19919;-84
2022/03/23 01:18:57;;;;;;;;;;;;;;;6.73;34.21;101499.56;6216388;23;19927;-83
2022/03/23 01:21:23;;;;;;;;;;;;;;;6.70;34.43;101503.06;6216053;23;19912;-84
2022/03/23 01:23:48;;;;;;;;;;;;;;;6.67;34.46;101506.59;6216150;23;19938;-84
2022/03/23 01:26:14;;;;;;;;;;;;;;;6.64;34.27;101502.59;6216703;23;19916;-84
2022/03/23 01:28:39;;;;;;;;;;;;;;;6.65;34.48;101495.13;6242997;23;20305;-84
2022/03/23 01:31:05;;;;;;;;;;;;;;;6.66;34.29;101496.72;6216864;23;19916;-84
2022/03/23 01:33:31;;;;;;;;;;;;;;;6.69;34.31;101495.97;6242786;23;20053;-78
2022/03/23 01:35:57;;;;;;;;;;;;;;;6.69;34.59;101502.28;6216497;23;19950;-78
2022/03/23 01:38:22;;;;;;;;;;;;;;;6.67;34.53;101495.56;6242768;23;20280;-78
2022/03/23 01:40:47;;;;;;;;;;;;;;;6.66;34.27;101485.69;6243866;23;19915;-78
2022/03/23 01:43:15;;;;;;;;;;;;;;;6.63;34.86;101491.97;6242832;23;19919;-78
2022/03/23 01:45:41;;;;;;;;;;;;;;;6.54;34.92;101490.28;6243072;23;20282;-78
2022/03/23 01:48:06;;;;;;;;;;;;;;;6.46;34.96;101488.59;6242816;23;19907;-78
2022/03/23 01:50:32;;;;;;;;;;;;;;;6.43;34.74;101494.06;6243542;23;20430;-78
2022/03/23 01:52:57;;;;;;;;;;;;;;;6.44;34.92;101485.41;6243257;23;19916;-78
2022/03/23 01:55:22;;;;;;;;;;;;;;;6.41;34.85;101490.88;6243196;23;19922;-78
2022/03/23 01:57:51;;;;;;;;;;;;;;;6.42;34.55;101486.97;6242990;23;19943;-78
2022/03/23 02:00:17;;;;;;;;;;;;;;;6.47;34.62;101486.66;6216373;23;20230;-78
2022/03/23 04:18:07;;;;;;;;;;;;;;;4.18;39.52;101449.22;6269919;22;19926;-78
2022/03/23 04:20:33;;;;;;;;;;;;;;;4.39;38.74;101454.38;6273486;22;19931;-78
2022/03/23 04:22:58;;;;;;;;;;;;;;;4.71;37.95;101444.00;6273650;22;19916;-79
2022/03/23 04:25:24;;;;;;;;;;;;;;;4.89;37.21;101438.88;6246762;22;19916;-79
2022/03/23 04:27:50;;;;;;;;;;;;;;;5.18;36.52;101441.75;6273612;22;19998;-79
2022/03/23 04:30:17;;;;;;;;;;;;;;;5.34;36.19;101446.34;6247407;22;19920;-79
2022/03/23 04:32:44;;;;;;;;;;;;;;;5.46;36.18;101437.91;6273959;22;20001;-79
2022/03/23 04:35:09;;;;;;;;;;;;;;;5.53;35.77;101441.56;6274119;22;19946;-79
2022/03/23 04:37:35;;;;;;;;;;;;;;;5.66;35.53;101444.91;6273476;22;19923;-79
2022/03/23 04:40:00;;;;;;;;;;;;;;;5.59;36.09;101448.34;6273552;22;20349;-79
2022/03/23 04:42:25;;;;;;;;;;;;;;;5.52;36.25;101448.22;6273724;22;19997;-79
2022/03/23 04:44:51;;;;;;;;;;;;;;;5.53;36.04;101446.28;6274440;22;20263;-79
2022/03/23 04:47:16;;;;;;;;;;;;;;;5.50;36.44;101447.78;6274489;22;19916;-79
2022/03/23 04:49:42;;;;;;;;;;;;;;;5.48;36.07;101444.63;6273899;22;19915;-79
2022/03/23 04:52:07;;;;;;;;;;;;;;;5.46;36.12;101454.41;6273560;22;20002;-79
2022/03/23 04:54:35;;;;;;;;;;;;;;;5.42;36.21;101448.06;6274102;22;19919;-79
2022/03/23 04:57:00;;;;;;;;;;;;;;;5.32;36.31;101452.22;6272015;22;19911;-79
2022/03/23 04:59:27;;;;;;;;;;;;;;;5.27;37.00;101458.00;6274109;22;19946;-79
2022/03/23 05:01:52;;;;;;;;;;;;;;;5.21;36.95;101461.44;6273202;22;19958;-79
2022/03/23 05:04:18;;;;;;;;;;;;;;;5.13;37.16;101460.53;6246658;22;19919;-79
2022/03/23 05:06:43;;;;;;;;;;;;;;;5.07;38.00;101464.72;6273237;22;20326;-79
2022/03/23 05:09:08;;;;;;;;;;;;;;;5.02;38.07;101456.75;6273883;22;19962;-79
2022/03/23 05:11:34;;;;;;;;;;;;;;;5.03;37.09;101458.34;6247268;22;19950;-79
2022/03/23 05:13:59;;;;;;;;;;;;;;;5.20;36.75;101457.91;6246427;22;19930;-78
2022/03/23 05:16:25;;;;;;;;;;;;;;;5.36;36.50;101463.28;6274400;22;19961;-79
2022/03/23 05:18:50;;;;;;;;;;;;;;;5.50;36.41;101458.78;6246308;22;19919;-79
2022/03/23 05:21:15;;;;;;;;;;;;;;;5.56;36.31;101457.34;6274310;22;19990;-79
2022/03/23 05:23:41;;;;;;;;;;;;;;;5.61;36.23;101470.00;6273147;22;19915;-79
2022/03/23 05:26:06;;;;;;;;;;;;;;;5.62;36.42;101466.09;6271386;22;19915;-79
2022/03/23 05:28:31;;;;;;;;;;;;;;;5.60;36.81;101462.88;6271123;22;19911;-79
2022/03/23 05:30:59;;;;;;;;;;;;;;;5.62;36.41;101469.59;6272204;22;19923;-80
2022/03/23 05:33:24;;;;;;;;;;;;;;;5.71;36.10;101465.81;6269717;22;19921;-80
2022/03/23 05:35:50;;;;;;;;;;;;;;;5.81;35.65;101463.22;6269400;22;19911;-80
2022/03/23 05:38:16;;;;;;;;;;;;;;;5.96;35.34;101461.50;6269946;22;19915;-79
2022/03/23 05:40:41;;;;;;;;;;;;;;;6.05;35.19;101462.03;6270832;22;19915;-80
2022/03/23 05:43:06;;;;;;;;;;;;;;;6.11;35.41;101468.81;6244317;22;19911;-79
2022/03/23 05:45:32;;;;;;;;;;;;;;;6.17;35.29;101470.09;6246327;22;19926;-79
2022/03/23 05:47:57;;;;;;;;;;;;;;;6.27;35.48;101469.41;6273695;22;19946;-79
2022/03/23 05:50:23;;;;;;;;;;;;;;;6.33;36.44;101467.16;6246973;22;19911;-79
2022/03/23 05:52:48;;;;;;;;;;;;;;;6.37;35.97;101468.78;6245144;22;19915;-79
2022/03/23 05:55:13;;;;;;;;;;;;;;;6.47;36.85;101470.88;6270324;22;19915;-79
2022/03/23 05:57:39;;;;;;;;;;;;;;;6.50;38.41;101472.09;6245773;22;19927;-79
2022/03/23 06:00:06;;;;;;;;;;;;;;;6.47;38.81;101468.13;6274686;22;19997;-87
2022/03/23 06:02:37;;;;;;;;;;;;;;;6.57;38.63;101466.69;6273012;22;19915;-87
2022/03/23 06:05:02;;;;;;;;;;;;;;;6.73;38.70;101475.53;6275184;22;19915;-87
2022/03/23 06:07:28;;;;;;;;;;;;;;;6.88;39.09;101477.28;6273635;22;20325;-87
2022/03/23 06:09:53;;;;;;;;;;;;;;;7.12;38.57;101477.94;6271667;22;19969;-86
2022/03/23 06:12:19;;;;;;;;;;;;;;;7.33;38.63;101478.94;6272723;22;20689;-87
2022/03/23 06:14:44;;;;;;;;;;;;;;;7.49;38.37;101484.19;6274671;22;19919;-86
2022/03/23 06:17:10;;;;;;;;;;;;;;;7.64;38.37;101485.94;6273964;22;19987;-89
2022/03/23 06:19:35;;;;;;;;;;;;;;;7.77;37.88;101476.16;6274306;22;19935;-84
2022/03/23 06:22:02;;;;;;;;;;;;;;;7.88;38.01;101479.00;6279119;22;19926;-91
2022/03/23 06:24:27;;;;;;;;;;;;;;;8.10;35.67;101480.72;6276759;22;19922;-86
2022/03/23 06:26:52;;;;;;;;;;;;;;;8.37;33.94;101484.84;6275121;22;19955;-91
2022/03/23 06:29:18;;;;;;;;;;;;;;;8.63;33.77;101486.56;6248378;22;20381;-91
2022/03/23 06:31:43;;;;;;;;;;;;;;;8.79;32.36;101484.25;6275057;22;20417;-92
2022/03/23 06:34:09;;;;;;;;;;;;;;;8.96;31.55;101479.97;6250010;22;19950;-93
2022/03/23 06:36:37;;;;;;;;;;;;;;;9.05;31.28;101479.59;6276217;22;19931;-92
2022/03/23 06:39:03;;;;;;;;;;;;;;;9.12;31.01;101469.34;6276742;22;19938;-96
2022/03/23 06:41:28;;;;;;;;;;;;;;;9.18;31.15;101484.38;6277332;22;20337;-94
2022/03/23 06:43:54;;;;;;;;;;;;;;;9.28;31.14;101483.59;6273486;22;19918;-94
2022/03/23 06:46:19;;;;;;;;;;;;;;;9.47;30.43;101484.41;6246860;22;20416;-93
2022/03/23 06:48:47;;;;;;;;;;;;;;;9.63;31.06;101479.28;6273766;22;19923;-94
2022/03/23 06:51:13;;;;;;;;;;;;;;;9.79;30.51;101479.66;6273766;22;20209;-93
2022/03/23 06:53:38;;;;;;;;;;;;;;;9.92;30.04;101480.84;6275410;22;19919;-95
2022/03/23 06:56:04;;;;;;;;;;;;;;;10.10;29.82;101476.09;6273664;22;19950;-93
2022/03/23 06:58:29;;;;;;;;;;;;;;;10.29;29.83;101480.41;6246557;22;19934;-94
2022/03/23 07:00:54;;;;;;;;;;;;;;;10.42;29.24;101480.78;6247996;22;19965;-94
2022/03/23 07:03:20;;;;;;;;;;;;;;;10.70;29.20;101480.69;6274809;22;20001;-94
2022/03/23 07:05:46;;;;;;;;;;;;;;;10.90;29.06;101476.22;6223270;22;20296;-94
2022/03/23 07:10:57;;;;;;;;;;;;;;;11.21;27.79;101491.91;6275558;22;19919;-94
2022/03/23 07:13:23;;;;;;;;;;;;;;;11.29;27.42;101491.84;6249059;22;19915;-94
2022/03/23 07:15:48;;;;;;;;;;;;;;;11.27;27.30;101486.72;6248699;22;20309;-94
2022/03/23 07:18:13;;;;;;;;;;;;;;;11.35;27.70;101488.25;6275271;22;19915;-94
2022/03/23 07:20:39;;;;;;;;;;;;;;;11.49;27.55;101490.91;6275374;22;19919;-94
2022/03/23 07:23:04;;;;;;;;;;;;;;;11.56;27.90;101484.53;6222952;22;20010;-93
2022/03/23 07:25:32;;;;;;;;;;;;;;;11.78;28.21;101485.97;6275657;22;19915;-94
2022/03/23 07:27:58;;;;;;;;;;;;;;;12.04;27.56;101485.34;6222602;22;20300;-93
2022/03/23 07:30:24;;;;;;;;;;;;;;;12.20;27.15;101484.78;6275688;22;19919;-95
2022/03/23 07:32:51;;;;;;;;;;;;;;;12.26;27.10;101482.31;6274621;22;19915;-94
2022/03/23 07:35:17;;;;;;;;;;;;;;;12.28;27.44;101480.72;6275766;22;19923;-92
2022/03/23 07:37:42;;;;;;;;;;;;;;;12.46;27.06;101481.28;6222751;22;19915;-95
2022/03/23 07:40:08;;;;;;;;;;;;;;;12.64;26.73;101469.97;6275450;22;19935;-95
2022/03/23 07:42:33;;;;;;;;;;;;;;;12.83;26.67;101477.66;6275110;22;19947;-93
2022/03/23 07:44:58;;;;;;;;;;;;;;;13.06;25.94;101474.94;6275712;22;19916;-95
2022/03/23 07:47:24;;;;;;;;;;;;;;;13.06;25.83;101472.16;6274898;22;19915;-95
2022/03/23 07:49:49;;;;;;;;;;;;;;;13.18;25.92;101481.22;6222725;22;20329;-93
2022/03/23 07:52:15;;;;;;;;;;;;;;;13.23;26.07;101467.59;6276177;22;19980;-94
2022/03/23 07:54:40;;;;;;;;;;;;;;;13.32;25.82;101470.63;6275109;22;19911;-92
2022/03/23 07:57:05;;;;;;;;;;;;;;;13.49;26.21;101466.78;6275245;22;19923;-93
2022/03/23 07:59:31;;;;;;;;;;;;;;;13.72;26.40;101465.22;6275194;22;19985;-91
2022/03/23 08:01:56;;;;;;;;;;;;;;;13.83;25.26;101466.59;6248228;22;19954;-95
2022/03/23 08:04:22;;;;;;;;;;;;;;;13.82;24.55;101467.06;6274959;22;20288;-93
2022/03/23 08:06:47;;;;;;;;;;;;;;;13.87;25.85;101464.53;6274979;22;19949;-93
2022/03/23 08:09:12;;;;;;;;;;;;;;;14.11;25.09;101464.53;6275395;22;20367;-93
2022/03/23 08:11:38;;;;;;;;;;;;;;;14.33;25.59;101469.28;6274789;22;20017;-92
2022/03/23 08:14:03;;;;;;;;;;;;;;;14.59;25.20;101467.63;6274897;22;20403;-81
2022/03/23 08:16:29;;;;;;;;;;;;;;;14.94;24.69;101472.44;6248207;22;19962;-79
2022/03/23 08:18:54;;;;;;;;;;;;;;;15.07;24.07;101468.97;6274290;22;19915;-81
2022/03/23 08:21:21;;;;;;;;;;;;;;;15.05;23.73;101465.81;6275111;22;20300;-81
2022/03/23 08:23:47;;;;;;;;;;;;;;;15.17;23.91;101465.13;6274183;22;20226;-81
2022/03/23 08:26:14;;;;;;;;;;;;;;;15.25;23.33;101466.56;6275007;22;19915;-81
2022/03/23 08:28:41;;;;;;;;;;;;;;;15.44;23.14;101465.72;6274465;22;19915;-81
2022/03/23 08:31:07;;;;;;;;;;;;;;;15.73;23.58;101465.84;6275098;22;19918;-79
2022/03/23 08:33:34;;;;;;;;;;;;;;;16.13;23.36;101460.81;6274890;22;19916;-93
2022/03/23 08:36:03;;;;;;;;;;;;;;;16.27;22.87;101460.41;6274467;22;19924;-94
2022/03/23 08:38:47;;;;;;;;;;;;;;;16.38;22.25;101455.28;6274446;22;19918;-93
2022/03/23 08:41:13;;;;;;;;;;;;;;;16.37;22.85;101464.94;6274792;22;19939;-92
2022/03/23 08:43:40;;;;;;;;;;;;;;;16.60;22.43;101456.28;6274321;22;19954;-95
2022/03/23 08:46:05;;;;;;;;;;;;;;;16.87;21.93;101455.88;6274685;22;19926;-94
2022/03/23 08:48:31;;;;;;;;;;;;;;;16.84;21.90;101453.19;6274776;22;20241;-94
2022/03/23 08:50:56;;;;;;;;;;;;;;;16.97;22.40;101454.00;6274932;22;19941;-94
2022/03/23 08:53:23;;;;;;;;;;;;;;;17.10;22.52;101449.19;6247739;22;19915;-91
2022/03/23 08:55:48;;;;;;;;;;;;;;;17.26;21.36;101449.09;6247132;22;19911;-92
2022/03/23 08:58:13;;;;;;;;;;;;;;;17.42;21.19;101443.34;6247244;22;20295;-92
2022/03/23 09:00:41;;;;;;;;;;;;;;;17.50;21.64;101449.50;6274985;22;19994;-93
2022/03/23 09:03:06;;;;;;;;;;;;;;;17.59;20.96;101446.84;6247855;22;20690;-94
2022/03/23 09:05:32;;;;;;;;;;;;;;;17.54;20.62;101448.16;6274574;22;19923;-91
2022/03/23 09:07:57;;;;;;;;;;;;;;;17.49;20.47;101450.75;6274132;22;19911;-92
2022/03/23 09:10:23;;;;;;;;;;;;;;;17.69;21.38;101452.09;6275029;22;19943;-79
2022/03/23 09:12:48;;;;;;;;;;;;;;;18.00;20.83;101443.81;6274293;22;19915;-79
2022/03/23 09:15:15;;;;;;;;;;;;;;;18.08;20.71;101427.47;6274433;22;19915;-81
2022/03/23 09:17:40;;;;;;;;;;;;;;;18.22;20.17;101443.84;6274189;22;19923;-82
2022/03/23 09:20:06;;;;;;;;;;;;;;;18.36;20.64;101439.75;6274394;22;20250;-81
2022/03/23 09:22:35;;;;;;;;;;;;;;;18.37;20.15;101439.25;6274734;22;19916;-81
2022/03/23 09:25:03;;;;;;;;;;;;;;;18.46;20.27;101433.72;6273511;22;19926;-81
2022/03/23 09:27:28;;;;;;;;;;;;;;;18.80;20.52;101438.50;6273901;22;19988;-82
2022/03/23 09:29:53;;;;;;;;;;;;;;;19.05;19.29;101432.66;6273899;22;19915;-93
2022/03/23 09:32:19;;;;;;;;;;;;;;;19.12;19.37;101428.81;6274712;22;20242;-92
2022/03/23 09:34:45;;;;;;;;;;;;;;;19.17;19.27;101424.59;6274025;22;19919;-93
2022/03/23 09:39:55;;;;;;;;;;;;;;;19.29;18.81;101423.72;6273793;22;19998;-94
2022/03/23 09:42:21;;;;;;;;;;;;;;;19.51;18.91;101418.78;6274524;22;19966;-92
2022/03/23 09:44:47;;;;;;;;;;;;;;;19.46;18.55;101406.13;6273888;22;20356;-93
2022/03/23 09:47:12;;;;;;;;;;;;;;;19.60;18.50;101416.00;6274258;22;19935;-95
2022/03/23 09:49:37;;;;;;;;;;;;;;;19.68;18.64;101410.84;6247110;22;19961;-93
2022/03/23 09:52:04;;;;;;;;;;;;;;;19.92;18.71;101421.03;6274240;22;19915;-94
2022/03/23 09:54:30;;;;;;;;;;;;;;;20.00;18.10;101410.25;6247269;22;20031;-91
2022/03/23 09:56:55;;;;;;;;;;;;;;;20.30;17.60;101406.50;6274232;22;19946;-93
2022/03/23 09:59:20;;;;;;;;;;;;;;;20.51;19.96;101403.97;6274201;22;19973;-94
2022/03/23 10:01:51;;;;;;;;;;;;;;;19.76;20.74;101404.44;6274649;22;19921;-94
2022/03/23 10:04:19;;;;;;;;;;;;;;;20.13;21.86;101396.78;6274159;22;19922;-93
2022/03/23 10:06:50;;;;;;;;;;;;;;;20.13;17.53;101399.63;6274325;22;19953;-94
2022/03/23 10:09:21;;;;;;;;;;;;;;;20.34;16.51;101395.84;6274013;22;19915;-94
2022/03/23 10:11:53;;;;;;;;;;;;;;;20.44;16.87;101391.78;6273945;22;19915;-94
2022/03/23 10:14:37;;;;;;;;;;;;;;;20.36;15.96;101386.94;6273744;22;19915;-94
2022/03/23 10:17:12;;;;;;;;;;;;;;;20.45;16.57;101384.09;6273815;22;20349;-93
2022/03/23 10:19:41;;;;;;;;;;;;;;;20.59;16.88;101388.28;6273779;22;20345;-93
2022/03/23 10:22:08;;;;;;;;;;;;;;;20.78;17.19;101389.81;6274312;22;19994;-93
2022/03/23 10:24:34;;;;;;;;;;;;;;;21.04;16.50;101385.28;6274078;22;19947;-93
2022/03/23 10:27:04;;;;;;;;;;;;;;;21.00;16.30;101378.25;6274451;22;19922;-80
2022/03/23 10:29:31;;;;;;;;;;;;;;;21.12;16.82;101382.94;6247103;22;19915;-80
2022/03/23 10:32:00;;;;;;;;;;;;;;;21.19;15.98;101382.63;6275853;22;19915;-80
2022/03/23 10:34:25;;;;;;;;;;;;;;;21.17;16.18;101374.63;6275736;22;19922;-80
2022/03/23 10:36:51;;;;;;;;;;;;;;;21.40;16.56;101378.72;6248709;22;19947;-81
2022/03/23 10:39:18;;;;;;;;;;;;;;;21.55;16.71;101373.13;6275971;22;20002;-81
2022/03/23 10:41:44;;;;;;;;;;;;;;;21.37;15.75;101369.16;6249516;22;19943;-80
2022/03/23 10:44:15;;;;;;;;;;;;;;;21.55;16.38;101367.50;6248163;22;19918;-81
2022/03/23 10:46:41;;;;;;;;;;;;;;;21.67;15.48;101363.63;6276352;22;19919;-80
2022/03/23 10:49:06;;;;;;;;;;;;;;;21.85;16.56;101363.47;6248050;22;20038;-80
2022/03/23 10:51:35;;;;;;;;;;;;;;;21.18;19.30;101364.91;6276232;22;19916;-80
2022/03/23 10:54:26;;;;;;;;;;;;;;;20.97;19.65;101357.44;6275327;22;19912;-80
2022/03/23 10:56:52;;;;;;;;;;;;;;;21.06;19.37;101360.22;6275981;22;19919;-80
2022/03/23 10:59:22;;;;;;;;;;;;;;;20.74;19.86;101344.88;6275562;22;19922;-80
2022/03/23 11:02:06;;;;;;;;;;;;;;;20.51;20.05;101350.41;6275788;22;19915;-80
2022/03/23 11:04:32;;;;;;;;;;;;;;;19.94;20.49;101350.16;6248972;22;20252;-93
2022/03/23 11:06:58;;;;;;;;;;;;;;;19.58;20.24;101350.94;6223651;22;19915;-93
2022/03/23 11:18:04;;;;;;;;;;;;;;;20.21;20.13;101324.78;6274475;22;19954;-91
2022/03/23 11:20:45;;;;;;;;;;;;;;;20.49;19.95;101322.72;6274014;22;19961;-93
2022/03/23 11:23:30;;;;;;;;;;;;;;;20.56;20.04;101330.03;6273976;22;19961;-91
2022/03/23 11:26:00;;;;;;;;;;;;;;;20.45;20.14;101314.44;6274098;22;19919;-94
2022/03/23 11:28:26;;;;;;;;;;;;;;;20.78;20.07;101316.50;6273160;22;20392;-91
2022/03/23 11:30:52;;;;;;;;;;;;;;;21.03;19.04;101320.91;6273704;22;19935;-90
2022/03/23 11:33:20;;;;;;;;;;;;;;;20.99;18.32;101309.03;6273753;22;19915;-91
2022/03/23 11:35:48;;;;;;;;;;;;;;;20.87;18.56;101300.28;6246946;22;20293;-91
2022/03/23 11:38:17;;;;;;;;;;;;;;;20.87;18.93;101307.97;6273571;22;19915;-92
2022/03/23 11:40:44;;;;;;;;;;;;;;;20.21;18.64;101305.06;6273977;22;19915;-92
2022/03/23 11:43:10;;;;;;;;;;;;;;;20.42;20.10;101309.72;6272879;22;19994;-93
2022/03/23 11:45:37;;;;;;;;;;;;;;;20.53;18.78;101300.00;6273600;22;20011;-93
2022/03/23 11:48:08;;;;;;;;;;;;;;;20.73;18.60;101292.53;6247037;22;20534;-92
2022/03/23 11:50:39;;;;;;;;;;;;;;;20.90;17.72;101290.09;6273199;22;19915;-90
2022/03/23 11:53:11;;;;;;;;;;;;;;;20.99;17.29;101289.28;6246436;22;19971;-93
2022/03/23 11:55:46;;;;;;;;;;;;;;;20.42;17.13;101290.00;6272291;22;19915;-91
2022/03/23 12:00:53;;;;;;;;;;;;;;;19.84;15.93;101281.03;6272562;22;19919;-89
2022/03/23 12:03:58;;;;;;;;;;;;;;;19.99;16.00;101285.53;6272999;22;19915;-93
2022/03/23 12:06:42;;;;;;;;;;;;;;;19.91;16.07;101278.69;6118394;23;19921;-93
2022/03/23 12:09:07;;;;;;;;;;;;;;;20.21;16.60;101274.09;6120375;23;19917;-91
2022/03/23 12:11:51;;;;;;;;;;;;;;;20.24;15.74;101269.53;6210663;22;20094;-91
2022/03/23 12:14:21;;;;;;;;;;;;;;;20.34;17.09;101269.03;6246598;22;19926;-92
2022/03/23 12:16:57;;;;;;;;;;;;;;;19.69;16.43;101263.22;6252231;22;1958667;-85
2022/03/23 12:19:23;;;;;;;;;;;;;;;19.49;16.88;101264.47;6275953;22;19919;-92
2022/03/23 12:21:58;;;;;;;;;;;;;;;19.97;16.32;101262.72;6247993;22;20227;-80
2022/03/23 12:24:32;;;;;;;;;;;;;;;20.20;16.83;101252.78;6275197;22;19923;-81
2022/03/23 12:26:58;;;;;;;;;;;;;;;20.19;16.38;101253.25;6274630;22;19919;-81
2022/03/23 12:29:25;;;;;;;;;;;;;;;19.95;15.72;101253.16;6274505;22;19911;-80
2022/03/23 12:32:01;;;;;;;;;;;;;;;19.75;14.48;101252.88;6247381;22;19938;-80
2022/03/23 12:34:26;;;;;;;;;;;;;;;19.62;15.23;101238.19;6273849;22;19953;-80
2022/03/23 12:37:01;;;;;;;;;;;;;;;19.73;14.53;101244.16;6271527;22;20337;-80
2022/03/23 12:39:31;;;;;;;;;;;;;;;19.87;15.62;101237.84;6245721;22;19919;-80
2022/03/23 12:42:17;;;;;;;;;;;;;;;20.05;15.32;101237.03;6272765;22;20356;-80
2022/03/23 12:44:46;;;;;;;;;;;;;;;19.88;14.92;101212.03;6272931;22;19919;-81
2022/03/23 12:47:27;;;;;;;;;;;;;;;20.12;15.35;101226.22;6272688;22;19946;-80
2022/03/23 12:58:08;;;;;;;;;;;;;;;19.96;13.17;101210.47;6272438;22;20234;-78
2022/03/23 13:00:37;;;;;;;;;;;;;;;19.75;13.38;101210.66;6273467;22;19922;-80
2022/03/23 13:03:06;;;;;;;;;;;;;;;19.70;12.87;101211.28;6272171;22;19919;-80
2022/03/23 13:05:37;;;;;;;;;;;;;;;20.01;14.33;101214.69;6245848;22;19911;-79
2022/03/23 13:08:27;;;;;;;;;;;;;;;19.87;14.37;101209.69;6272097;22;19929;-79
2022/03/23 13:11:03;;;;;;;;;;;;;;;20.40;13.14;101204.38;6272035;22;19923;-80
2022/03/23 13:13:37;;;;;;;;;;;;;;;20.51;13.01;101203.84;6273236;22;19915;-79
2022/03/23 13:16:03;;;;;;;;;;;;;;;20.45;13.99;101198.09;6272034;22;19990;-79
2022/03/23 13:18:30;;;;;;;;;;;;;;;20.51;14.40;101195.38;6271908;22;19919;-81
2022/03/23 13:20:59;;;;;;;;;;;;;;;20.77;15.58;101190.84;6244827;22;19926;-81
2022/03/23 13:23:25;;;;;;;;;;;;;;;20.84;14.72;101190.50;6220592;22;20276;-79
2022/03/23 13:26:03;;;;;;;;;;;;;;;20.40;13.40;101190.28;6244793;22;19947;-79
2022/03/23 13:28:29;;;;;;;;;;;;;;;19.85;13.35;101181.25;6272371;22;19919;-79
2022/03/23 13:30:58;;;;;;;;;;;;;;;20.10;14.10;101186.47;6271688;22;20041;-81
2022/03/23 13:33:25;;;;;;;;;;;;;;;20.14;14.68;101184.25;6242061;22;19915;-80
2022/03/23 13:35:51;;;;;;;;;;;;;;;20.27;13.95;101184.81;6271131;22;20002;-79
2022/03/23 13:38:16;;;;;;;;;;;;;;;20.52;13.50;101185.66;6272728;22;19942;-79
2022/03/23 13:43:26;;;;;;;;;;;;;;;20.31;14.29;101170.59;6271952;22;20364;-81
2022/03/23 13:45:53;;;;;;;;;;;;;;;20.31;13.55;101165.75;6272660;22;19945;-79
2022/03/23 13:48:19;;;;;;;;;;;;;;;20.24;13.71;101170.91;6272927;22;19992;-81
2022/03/23 13:50:45;;;;;;;;;;;;;;;20.41;13.54;101152.41;6245776;22;20353;-78
2022/03/23 13:53:13;;;;;;;;;;;;;;;20.35;14.18;101160.72;6272780;22;19919;-78
2022/03/23 13:55:39;;;;;;;;;;;;;;;20.52;14.75;101157.50;6272906;22;19915;-91
2022/03/23 13:58:06;;;;;;;;;;;;;;;20.68;14.21;101160.69;6272934;22;19915;-80
2022/03/23 14:00:35;;;;;;;;;;;;;;;20.76;14.37;101156.22;6271992;22;19916;-79
2022/03/23 14:03:01;;;;;;;;;;;;;;;20.96;14.45;101161.25;6272604;22;19918;-79
2022/03/23 14:05:26;;;;;;;;;;;;;;;21.00;14.72;101147.75;6272886;22;19942;-81
2022/03/23 14:07:52;;;;;;;;;;;;;;;21.16;13.83;101160.66;6246207;22;19969;-80
2022/03/23 14:10:17;;;;;;;;;;;;;;;21.21;13.91;101157.16;6221374;22;19938;-80
2022/03/23 14:12:48;;;;;;;;;;;;;;;21.15;14.31;101147.81;6275653;22;19919;-80
2022/03/23 14:15:13;;;;;;;;;;;;;;;20.98;13.86;101146.69;6248028;22;19915;-80
2022/03/23 14:17:40;;;;;;;;;;;;;;;21.07;14.07;101141.72;6247739;22;19950;-80
2022/03/23 14:20:05;;;;;;;;;;;;;;;21.11;14.47;101141.56;6248167;22;20143;-80
2022/03/23 14:22:31;;;;;;;;;;;;;;;20.64;14.07;101140.34;6273610;22;20218;-80
2022/03/23 14:24:58;;;;;;;;;;;;;;;20.18;14.19;101131.34;6274105;22;19915;-80
2022/03/23 14:27:39;;;;;;;;;;;;;;;19.88;14.24;101138.06;6274104;22;19916;-80
2022/03/23 14:30:09;;;;;;;;;;;;;;;19.78;14.10;101136.50;6274821;22;19915;-80
2022/03/23 14:32:35;;;;;;;;;;;;;;;19.67;14.24;101128.56;6247350;22;19919;-80
2022/03/23 14:35:02;;;;;;;;;;;;;;;19.93;14.46;101120.53;6275043;22;19912;-80
2022/03/23 14:37:40;;;;;;;;;;;;;;;19.86;14.40;101123.66;6248274;22;20113;-80
2022/03/23 14:40:38;;;;;;;;;;;;;;;19.90;14.43;101121.44;6274526;22;19986;-80
2022/03/23 14:43:04;;;;;;;;;;;;;;;20.22;15.17;101123.50;6190973;22;19919;-80
2022/03/23 14:45:42;;;;;;;;;;;;;;;20.31;14.80;101109.38;6275014;22;19918;-80
2022/03/23 14:48:27;;;;;;;;;;;;;;;20.14;14.63;101111.00;6274546;22;20349;-80
2022/03/23 14:50:53;;;;;;;;;;;;;;;19.95;14.83;101110.31;6246675;22;19931;-80
2022/03/23 14:53:25;;;;;;;;;;;;;;;20.01;15.23;101108.44;6273692;22;20333;-80
2022/03/23 14:55:51;;;;;;;;;;;;;;;20.06;15.22;101109.81;6274878;22;20006;-80
2022/03/23 14:58:27;;;;;;;;;;;;;;;20.01;14.66;101110.47;6274164;22;20341;-80
2022/03/23 15:00:53;;;;;;;;;;;;;;;19.60;15.08;101095.16;6272221;22;20295;-80
2022/03/23 15:03:18;;;;;;;;;;;;;;;19.57;15.19;101106.56;6248260;22;19911;-80
2022/03/23 15:13:55;;;;;;;;;;;;;;;20.02;15.09;101100.75;6273932;22;19998;-80
2022/03/23 15:16:21;;;;;;;;;;;;;;;20.01;14.87;101090.75;6246889;22;19939;-80
2022/03/23 15:18:46;;;;;;;;;;;;;;;20.10;15.32;101090.69;6272752;22;20348;-81
2022/03/23 15:21:12;;;;;;;;;;;;;;;19.95;14.94;101093.44;6218523;22;19984;-81
2022/03/23 15:23:37;;;;;;;;;;;;;;;20.19;15.26;101090.66;6271316;22;19953;-83
2022/03/23 15:26:02;;;;;;;;;;;;;;;20.26;15.13;101090.28;6272842;22;19919;-82
2022/03/23 15:28:28;;;;;;;;;;;;;;;20.16;14.71;101091.59;6272705;22;20352;-81
2022/03/23 15:30:53;;;;;;;;;;;;;;;20.18;15.38;101089.06;6245939;22;19957;-81
2022/03/23 15:33:20;;;;;;;;;;;;;;;20.10;15.00;101089.94;6274145;22;19954;-81